createdAt,value
2023-05-18T00:00:27.149Z,5.30
2023-05-18T00:03:14.485Z,5.30
2023-05-18T00:06:04.709Z,5.30
2023-05-18T00:08:51.940Z,5.30
2023-05-18T00:11:41.037Z,5.40
2023-05-18T00:14:28.512Z,5.50
2023-05-18T00:17:16.015Z,5.30
2023-05-18T00:20:05.077Z,5.20
2023-05-18T00:22:52.902Z,5.20
2023-05-18T00:25:40.014Z,5.10
2023-05-18T00:28:27.650Z,5.10
2023-05-18T00:31:14.741Z,5.00
2023-05-18T00:34:11.946Z,5.00
2023-05-18T00:36:59.014Z,5.10
2023-05-18T00:39:46.216Z,5.00
2023-05-18T00:42:33.365Z,5.00
2023-05-18T00:45:20.598Z,5.00
2023-05-18T00:48:07.750Z,5.00
2023-05-18T00:50:54.965Z,4.90
2023-05-18T00:53:44.161Z,4.80
2023-05-18T00:56:34.224Z,4.70
2023-05-18T00:59:22.161Z,4.60
2023-05-18T01:02:09.664Z,4.50
2023-05-18T01:04:56.863Z,4.50
2023-05-18T01:07:44.220Z,4.50
2023-05-18T01:10:36.824Z,4.40
2023-05-18T01:13:34.717Z,4.40
2023-05-18T01:16:28.000Z,4.30
2023-05-18T01:19:52.288Z,4.30
2023-05-18T01:23:21.446Z,4.30
2023-05-18T01:26:15.222Z,4.20
2023-05-18T01:29:09.654Z,4.20
2023-05-18T01:31:58.329Z,4.10
2023-05-18T01:34:45.418Z,4.10
2023-05-18T01:37:32.492Z,4.20
2023-05-18T01:40:19.783Z,4.10
2023-05-18T01:43:13.364Z,4.10
2023-05-18T01:46:15.109Z,4.10
2023-05-18T01:49:09.380Z,4.10
2023-05-18T01:52:01.543Z,4.10
2023-05-18T01:54:53.831Z,4.20
2023-05-18T01:57:44.554Z,4.20
2023-05-18T02:00:32.667Z,4.10
2023-05-18T02:03:20.158Z,4.00
2023-05-18T02:06:07.468Z,4.00
2023-05-18T02:08:55.330Z,4.00
2023-05-18T02:11:42.447Z,3.90
2023-05-18T02:14:29.533Z,4.10
2023-05-18T02:17:16.656Z,3.90
2023-05-18T02:20:10.152Z,4.00
2023-05-18T02:22:57.240Z,4.00
2023-05-18T02:25:44.580Z,3.90
2023-05-18T02:28:34.186Z,3.90
2023-05-18T02:31:21.899Z,3.90
2023-05-18T02:34:10.335Z,3.90
2023-05-18T02:36:57.898Z,4.00
2023-05-18T02:39:45.118Z,4.00
2023-05-18T02:42:32.654Z,3.90
2023-05-18T02:45:20.920Z,3.70
2023-05-18T02:48:08.125Z,3.70
2023-05-18T02:50:55.431Z,3.60
2023-05-18T02:53:46.527Z,3.80
2023-05-18T02:56:36.383Z,3.80
2023-05-18T02:59:32.869Z,3.70
2023-05-18T03:02:22.916Z,3.60
2023-05-18T03:05:10.323Z,3.50
2023-05-18T03:07:58.288Z,3.50
2023-05-18T03:10:45.826Z,3.50
2023-05-18T03:13:33.034Z,3.50
2023-05-18T03:16:20.640Z,3.40
2023-05-18T03:19:07.957Z,3.30
2023-05-18T03:21:58.677Z,3.30
2023-05-18T03:24:46.181Z,3.30
2023-05-18T03:27:37.809Z,3.30
2023-05-18T03:30:25.183Z,3.50
2023-05-18T03:33:12.662Z,3.60
2023-05-18T03:36:04.636Z,3.70
2023-05-18T03:38:52.272Z,3.60
2023-05-18T03:41:39.509Z,3.80
2023-05-18T03:44:26.675Z,3.80
2023-05-18T03:47:14.212Z,3.70
2023-05-18T03:50:01.626Z,3.80
2023-05-18T03:52:48.769Z,3.70
2023-05-18T03:55:36.235Z,3.70
2023-05-18T03:58:23.429Z,3.70
2023-05-18T04:01:10.640Z,3.50
2023-05-18T04:03:58.607Z,3.40
2023-05-18T04:06:49.309Z,3.30
2023-05-18T04:09:36.964Z,3.20
2023-05-18T04:12:24.417Z,3.10
2023-05-18T04:15:14.402Z,3.10
2023-05-18T04:18:02.232Z,3.10
2023-05-18T04:20:49.546Z,3.20
2023-05-18T04:23:39.231Z,3.30
2023-05-18T04:26:27.048Z,3.30
2023-05-18T04:29:14.120Z,3.30
2023-05-18T04:32:01.466Z,3.30
2023-05-18T04:34:49.809Z,3.30
2023-05-18T04:37:40.291Z,3.30
2023-05-18T04:40:33.773Z,3.30
2023-05-18T04:43:21.425Z,3.30
2023-05-18T04:46:08.589Z,3.50
2023-05-18T04:48:58.039Z,3.50
2023-05-18T04:51:46.811Z,3.50
2023-05-18T04:54:33.973Z,3.70
2023-05-18T04:57:21.348Z,3.70
2023-05-18T05:00:09.796Z,3.90
2023-05-18T05:02:58.090Z,3.90
2023-05-18T05:05:45.340Z,4.00
2023-05-18T05:08:33.113Z,4.10
2023-05-18T05:11:20.203Z,4.20
2023-05-18T05:14:07.745Z,4.20
2023-05-18T05:16:54.827Z,4.30
2023-05-18T05:19:42.334Z,4.40
2023-05-18T05:22:29.698Z,4.40
2023-05-18T05:25:17.068Z,4.50
2023-05-18T05:28:05.052Z,4.50
2023-05-18T05:30:53.154Z,4.50
2023-05-18T05:33:40.832Z,4.50
2023-05-18T05:36:28.262Z,4.60
2023-05-18T05:39:16.161Z,4.70
2023-05-18T05:42:03.799Z,4.70
2023-05-18T05:44:51.437Z,4.70
2023-05-18T05:47:39.812Z,4.70
2023-05-18T05:50:27.770Z,4.80
2023-05-18T05:53:19.821Z,4.90
2023-05-18T05:56:08.423Z,5.00
2023-05-18T05:58:58.599Z,5.00
2023-05-18T06:01:45.741Z,5.10
2023-05-18T06:04:33.391Z,5.30
2023-05-18T06:07:21.923Z,5.50
2023-05-18T06:10:09.297Z,5.50
2023-05-18T06:12:56.662Z,5.60
2023-05-18T06:15:49.949Z,5.70
2023-05-18T06:18:37.193Z,5.90
2023-05-18T06:21:26.018Z,5.90
2023-05-18T06:24:13.272Z,6.00
2023-05-18T06:27:23.521Z,6.10
2023-05-18T06:30:28.451Z,6.30
2023-05-18T06:33:28.385Z,6.40
2023-05-18T06:36:16.597Z,6.60
2023-05-18T06:39:05.207Z,6.90
2023-05-18T06:41:52.405Z,7.00
2023-05-18T06:44:43.601Z,7.20
2023-05-18T06:47:37.141Z,7.20
2023-05-18T06:50:24.735Z,7.30
2023-05-18T06:53:13.479Z,7.50
2023-05-18T06:56:00.946Z,7.60
2023-05-18T06:58:48.860Z,7.70
2023-05-18T07:01:36.003Z,7.80
2023-05-18T07:04:24.897Z,7.90
2023-05-18T07:07:12.024Z,7.90
2023-05-18T07:09:59.240Z,7.90
2023-05-18T07:12:46.361Z,8.10
2023-05-18T07:15:33.794Z,8.20
2023-05-18T07:18:21.063Z,8.30
2023-05-18T07:21:08.287Z,8.40
2023-05-18T07:23:55.473Z,8.50
2023-05-18T07:26:42.525Z,8.60
2023-05-18T07:29:30.445Z,8.60
2023-05-18T07:32:17.517Z,8.70
2023-05-18T07:35:05.142Z,8.60
2023-05-18T07:37:53.967Z,8.90
2023-05-18T07:40:41.110Z,9.10
2023-05-18T07:43:28.202Z,9.20
2023-05-18T07:46:15.757Z,9.20
2023-05-18T07:49:02.920Z,9.20
2023-05-18T07:51:51.144Z,9.20
2023-05-18T07:54:38.546Z,9.40
2023-05-18T07:57:26.051Z,9.40
2023-05-18T08:00:13.764Z,9.40
2023-05-18T08:03:01.189Z,9.60
2023-05-18T08:05:48.436Z,9.70
2023-05-18T08:08:38.590Z,9.70
2023-05-18T08:11:25.801Z,9.60
2023-05-18T08:14:12.880Z,9.80
2023-05-18T08:16:59.990Z,9.90
2023-05-18T08:19:47.844Z,10.00
2023-05-18T08:22:34.926Z,9.90
2023-05-18T08:25:22.694Z,9.90
2023-05-18T08:28:09.909Z,10.10
2023-05-18T08:30:57.186Z,10.00
2023-05-18T08:33:44.644Z,10.20
2023-05-18T08:36:33.418Z,10.40
2023-05-18T08:39:22.448Z,10.40
2023-05-18T08:42:15.917Z,10.50
2023-05-18T08:45:13.194Z,10.70
2023-05-18T08:48:02.909Z,10.70
2023-05-18T08:50:51.576Z,10.70
2023-05-18T08:53:39.728Z,10.80
2023-05-18T08:56:27.033Z,10.90
2023-05-18T08:59:18.564Z,11.10
2023-05-18T09:02:06.065Z,11.00
2023-05-18T09:04:55.928Z,10.80
2023-05-18T09:07:43.648Z,11.00
2023-05-18T09:10:33.621Z,11.30
2023-05-18T09:13:21.349Z,11.40
2023-05-18T09:16:08.637Z,11.30
2023-05-18T09:18:55.849Z,11.30
2023-05-18T09:21:42.951Z,11.50
2023-05-18T09:24:30.160Z,11.70
2023-05-18T09:27:17.589Z,11.70
2023-05-18T09:30:05.243Z,12.00
2023-05-18T09:32:53.329Z,12.00
2023-05-18T09:35:41.057Z,11.90
2023-05-18T09:38:28.631Z,12.10
2023-05-18T09:41:17.505Z,12.00
2023-05-18T09:44:12.125Z,12.00
2023-05-18T09:46:59.771Z,12.10
2023-05-18T09:49:46.960Z,12.10
2023-05-18T09:52:44.747Z,12.20
2023-05-18T09:55:32.153Z,11.90
2023-05-18T09:58:19.352Z,11.90
2023-05-18T10:01:06.606Z,11.80
2023-05-18T10:04:03.983Z,12.00
2023-05-18T10:06:52.127Z,12.10
2023-05-18T10:09:44.076Z,12.50
2023-05-18T10:12:31.224Z,12.90
2023-05-18T10:15:21.055Z,13.00
2023-05-18T10:18:08.838Z,13.30
2023-05-18T10:21:01.515Z,13.40
2023-05-18T10:23:51.054Z,13.50
2023-05-18T10:26:40.626Z,13.60
2023-05-18T10:29:29.082Z,13.80
2023-05-18T10:32:17.245Z,14.10
2023-05-18T10:35:07.952Z,14.50
2023-05-18T10:37:57.508Z,14.50
2023-05-18T10:40:46.815Z,14.60
2023-05-18T10:43:35.137Z,14.50
2023-05-18T10:46:26.564Z,14.90
2023-05-18T10:49:17.369Z,15.30
2023-05-18T10:52:04.592Z,15.00
2023-05-18T10:54:52.692Z,14.50
2023-05-18T10:57:46.929Z,14.00
2023-05-18T11:00:36.245Z,13.90
2023-05-18T11:03:25.837Z,14.40
2023-05-18T11:06:14.986Z,14.80
2023-05-18T11:09:02.383Z,14.90
2023-05-18T11:11:59.579Z,15.40
2023-05-18T11:14:51.817Z,15.60
2023-05-18T11:17:42.618Z,14.80
2023-05-18T11:20:30.030Z,14.70
2023-05-18T11:23:21.042Z,15.20
2023-05-18T11:26:16.367Z,15.70
2023-05-18T11:29:17.150Z,15.60
2023-05-18T11:32:05.154Z,15.30
2023-05-18T11:34:53.697Z,15.70
2023-05-18T11:37:44.899Z,16.20
2023-05-18T11:40:49.285Z,16.40
2023-05-18T11:43:36.468Z,15.90
2023-05-18T11:46:23.604Z,16.10
2023-05-18T11:49:10.880Z,16.20
2023-05-18T11:52:16.473Z,16.10
2023-05-18T11:55:04.841Z,16.10
2023-05-18T11:57:53.145Z,16.10
2023-05-18T12:00:40.979Z,16.40
2023-05-18T12:03:31.426Z,16.10
2023-05-18T12:06:21.119Z,15.70
2023-05-18T12:09:08.302Z,15.60
2023-05-18T12:11:55.760Z,16.00
2023-05-18T12:14:47.788Z,16.10
2023-05-18T12:17:42.605Z,16.00
2023-05-18T12:20:31.347Z,16.10
2023-05-18T12:23:18.646Z,16.40
2023-05-18T12:26:06.750Z,15.90
2023-05-18T12:28:54.833Z,15.30
2023-05-18T12:31:42.302Z,15.30
2023-05-18T12:34:29.905Z,15.90
2023-05-18T12:37:17.027Z,16.10
2023-05-18T12:40:04.593Z,16.10
2023-05-18T12:42:53.845Z,16.20
2023-05-18T12:45:43.641Z,16.00
2023-05-18T12:48:38.512Z,16.20
2023-05-18T12:51:30.933Z,16.20
2023-05-18T12:54:28.871Z,16.00
2023-05-18T12:57:16.463Z,16.00
2023-05-18T13:00:10.163Z,15.90
2023-05-18T13:03:11.643Z,15.80
2023-05-18T13:06:08.475Z,16.10
2023-05-18T13:08:55.936Z,16.00
2023-05-18T13:12:03.947Z,16.20
2023-05-18T13:14:54.563Z,16.20
2023-05-18T13:18:01.270Z,16.10
2023-05-18T13:20:56.443Z,16.20
2023-05-18T13:23:43.492Z,16.20
2023-05-18T13:26:31.249Z,16.40
2023-05-18T13:29:18.364Z,16.20
2023-05-18T13:32:05.940Z,16.30
2023-05-18T13:34:53.030Z,16.50
2023-05-18T13:37:41.490Z,16.80
2023-05-18T13:40:28.718Z,16.70
2023-05-18T13:43:15.812Z,16.50
2023-05-18T13:46:02.975Z,16.60
2023-05-18T13:48:50.077Z,16.80
2023-05-18T13:51:37.381Z,17.00
2023-05-18T13:54:24.439Z,17.20
2023-05-18T13:57:11.489Z,16.90
2023-05-18T13:59:59.569Z,17.20
2023-05-18T14:02:47.223Z,17.80
2023-05-18T14:05:34.447Z,18.10
2023-05-18T14:08:21.516Z,18.10
2023-05-18T14:11:08.634Z,19.30
2023-05-18T14:13:55.815Z,20.50
2023-05-18T14:16:43.228Z,21.10
2023-05-18T14:19:30.418Z,21.70
2023-05-18T14:22:18.696Z,22.20
2023-05-18T14:25:06.355Z,22.90
2023-05-18T14:27:53.437Z,22.60
2023-05-18T14:30:41.053Z,23.20
2023-05-18T14:33:28.145Z,22.90
2023-05-18T14:36:15.297Z,22.60
2023-05-18T14:39:02.675Z,23.80
2023-05-18T14:41:49.742Z,23.50
2023-05-18T14:44:36.933Z,23.10
2023-05-18T14:47:24.046Z,22.30
2023-05-18T14:50:11.210Z,22.90
2023-05-18T14:52:58.322Z,23.10
2023-05-18T14:55:45.480Z,23.20
2023-05-18T14:58:32.687Z,22.90
2023-05-18T15:01:19.895Z,22.70
2023-05-18T15:04:07.027Z,23.20
2023-05-18T15:06:54.150Z,24.20
2023-05-18T15:09:41.292Z,23.60
2023-05-18T15:12:28.391Z,23.20
2023-05-18T15:15:15.550Z,23.20
2023-05-18T15:18:02.799Z,23.80
2023-05-18T15:20:49.910Z,23.60
2023-05-18T15:23:37.073Z,23.90
2023-05-18T15:26:24.496Z,23.60
2023-05-18T15:29:11.577Z,23.40
2023-05-18T15:31:58.682Z,22.70
2023-05-18T15:34:45.876Z,23.30
2023-05-18T15:37:33.378Z,23.40
2023-05-18T15:40:20.545Z,24.10
2023-05-18T15:43:07.609Z,24.60
2023-05-18T15:45:54.819Z,25.20
2023-05-18T15:48:41.918Z,25.80
2023-05-18T15:51:28.995Z,25.40
2023-05-18T15:54:16.076Z,24.90
2023-05-18T15:57:03.277Z,25.00
2023-05-18T15:59:50.573Z,23.80
2023-05-18T16:02:37.767Z,24.00
2023-05-18T16:05:24.852Z,24.10
2023-05-18T16:08:12.047Z,24.40
2023-05-18T16:10:59.134Z,24.00
2023-05-18T16:13:48.227Z,23.30
2023-05-18T16:16:35.542Z,23.10
2023-05-18T16:19:22.723Z,23.90
2023-05-18T16:22:10.172Z,24.10
2023-05-18T16:24:58.815Z,23.60
2023-05-18T16:27:46.017Z,23.40
2023-05-18T16:30:33.389Z,22.90
2023-05-18T16:33:20.809Z,22.30
2023-05-18T16:36:08.148Z,22.80
2023-05-18T16:38:55.799Z,22.70
2023-05-18T16:41:42.903Z,21.50
2023-05-18T16:44:30.068Z,20.70
2023-05-18T16:47:17.251Z,19.70
2023-05-18T16:50:04.735Z,19.60
2023-05-18T16:52:51.859Z,19.60
2023-05-18T16:55:39.009Z,19.30
2023-05-18T16:58:26.716Z,18.70
2023-05-18T17:01:26.627Z,18.00
2023-05-18T17:04:15.055Z,18.10
2023-05-18T17:07:02.263Z,17.80
2023-05-18T17:09:49.342Z,17.80
2023-05-18T17:12:36.879Z,17.70
2023-05-18T17:15:23.945Z,17.50
2023-05-18T17:18:11.363Z,17.10
2023-05-18T17:20:58.436Z,17.00
2023-05-18T17:23:45.717Z,17.10
2023-05-18T17:26:33.383Z,16.90
2023-05-18T17:29:21.888Z,17.00
2023-05-18T17:32:09.105Z,17.00
2023-05-18T17:34:56.262Z,16.70
2023-05-18T17:37:43.327Z,16.50
2023-05-18T17:40:30.730Z,16.50
2023-05-18T17:43:17.974Z,16.30
2023-05-18T17:46:05.345Z,16.10
2023-05-18T17:48:52.391Z,16.20
2023-05-18T17:51:39.664Z,16.40
2023-05-18T17:54:26.758Z,16.40
2023-05-18T17:57:13.853Z,16.40
2023-05-18T18:00:01.183Z,16.00
2023-05-18T18:02:48.325Z,16.00
2023-05-18T18:05:36.358Z,16.20
2023-05-18T18:08:25.012Z,16.20
2023-05-18T18:11:12.285Z,16.10
2023-05-18T18:13:59.928Z,16.10
2023-05-18T18:16:47.242Z,16.00
2023-05-18T18:19:34.301Z,15.80
2023-05-18T18:22:23.319Z,15.70
2023-05-18T18:25:10.441Z,15.60
2023-05-18T18:27:58.320Z,15.60
2023-05-18T18:30:46.255Z,15.60
2023-05-18T18:33:33.458Z,15.50
2023-05-18T18:36:20.570Z,15.30
2023-05-18T18:39:07.679Z,15.30
2023-05-18T18:41:54.814Z,15.30
2023-05-18T18:44:41.934Z,15.20
2023-05-18T18:47:29.113Z,15.20
2023-05-18T18:50:16.821Z,15.00
2023-05-18T18:53:03.856Z,15.00
2023-05-18T18:55:50.973Z,15.00
2023-05-18T18:58:38.152Z,14.80
2023-05-18T19:01:25.589Z,14.80
2023-05-18T19:04:13.123Z,14.80
2023-05-18T19:07:03.033Z,14.60
2023-05-18T19:09:50.457Z,14.50
2023-05-18T19:12:37.578Z,14.30
2023-05-18T19:15:24.775Z,14.20
2023-05-18T19:18:11.829Z,14.10
2023-05-18T19:21:01.188Z,14.10
2023-05-18T19:23:48.294Z,13.90
2023-05-18T19:26:35.401Z,13.90
2023-05-18T19:29:24.942Z,13.90
2023-05-18T19:32:12.055Z,13.60
2023-05-18T19:34:59.161Z,13.60
2023-05-18T19:37:46.594Z,13.50
2023-05-18T19:40:33.647Z,13.30
2023-05-18T19:43:20.716Z,13.20
2023-05-18T19:46:07.836Z,13.10
2023-05-18T19:48:56.404Z,13.10
2023-05-18T19:51:43.863Z,13.00
2023-05-18T19:54:31.128Z,13.00
2023-05-18T19:57:30.207Z,12.90
2023-05-18T20:00:17.463Z,12.90
2023-05-18T20:03:04.925Z,12.70
2023-05-18T20:05:52.150Z,12.70
2023-05-18T20:08:39.892Z,12.70
2023-05-18T20:11:26.989Z,12.60
2023-05-18T20:14:14.658Z,12.50
2023-05-18T20:17:01.894Z,12.50
2023-05-18T20:19:52.036Z,12.50
2023-05-18T20:22:39.432Z,12.40
2023-05-18T20:25:27.884Z,12.40
2023-05-18T20:28:16.090Z,12.30
2023-05-18T20:31:03.219Z,12.30
2023-05-18T20:33:50.553Z,12.20
2023-05-18T20:36:37.671Z,12.10
2023-05-18T20:39:26.102Z,12.00
2023-05-18T20:42:14.753Z,12.00
2023-05-18T20:45:01.793Z,11.90
2023-05-18T20:47:52.880Z,11.90
2023-05-18T20:50:39.944Z,11.90
2023-05-18T20:53:26.982Z,11.90
2023-05-18T20:56:15.642Z,11.90
2023-05-18T20:59:05.675Z,11.90
2023-05-18T21:01:53.824Z,11.70
2023-05-18T21:04:41.052Z,11.70
2023-05-18T21:07:28.491Z,11.70
2023-05-18T21:10:16.167Z,11.60
2023-05-18T21:13:03.246Z,11.60
2023-05-18T21:15:51.453Z,11.70
2023-05-18T21:18:38.507Z,11.50
2023-05-18T21:21:25.633Z,11.50
2023-05-18T21:24:12.768Z,11.40
2023-05-18T21:27:00.333Z,11.40
2023-05-18T21:29:47.423Z,11.30
2023-05-18T21:32:34.642Z,11.30
2023-05-18T21:35:21.896Z,11.10
2023-05-18T21:38:08.994Z,11.00
2023-05-18T21:40:56.676Z,11.00
2023-05-18T21:43:43.776Z,10.80
2023-05-18T21:46:31.158Z,10.70
2023-05-18T21:49:18.270Z,10.70
2023-05-18T21:52:05.451Z,10.60
2023-05-18T21:54:52.463Z,10.50
2023-05-18T21:57:39.530Z,10.40
2023-05-18T22:00:26.996Z,10.30
2023-05-18T22:03:14.131Z,10.20
2023-05-18T22:06:01.323Z,10.10
2023-05-18T22:08:48.746Z,10.00
2023-05-18T22:11:36.466Z,10.00
2023-05-18T22:14:23.576Z,10.00
2023-05-18T22:17:10.695Z,10.00
2023-05-18T22:19:58.096Z,10.10
2023-05-18T22:22:45.253Z,10.00
2023-05-18T22:25:32.521Z,9.90
2023-05-18T22:28:22.982Z,9.90
2023-05-18T22:31:10.029Z,9.90
2023-05-18T22:33:57.134Z,9.90
2023-05-18T22:36:44.445Z,9.90
2023-05-18T22:39:32.232Z,9.80
2023-05-18T22:42:19.334Z,9.70
2023-05-18T22:45:06.993Z,9.70
2023-05-18T22:47:54.147Z,9.50
2023-05-18T22:50:42.224Z,9.40
2023-05-18T22:53:29.539Z,9.40
2023-05-18T22:56:21.779Z,9.30
2023-05-18T22:59:11.450Z,9.20
2023-05-18T23:01:58.569Z,9.20
2023-05-18T23:04:45.699Z,9.00
2023-05-18T23:07:36.243Z,9.00
2023-05-18T23:10:23.359Z,9.00
2023-05-18T23:13:16.860Z,9.00
2023-05-18T23:16:04.052Z,9.00
2023-05-18T23:18:53.625Z,8.90
2023-05-18T23:21:40.817Z,8.90
2023-05-18T23:24:27.889Z,8.80
2023-05-18T23:27:14.920Z,8.80
2023-05-18T23:30:02.089Z,8.70
2023-05-18T23:32:50.103Z,8.60
2023-05-18T23:35:38.888Z,8.60
2023-05-18T23:38:34.854Z,8.50
2023-05-18T23:41:23.892Z,8.40
2023-05-18T23:44:11.236Z,8.40
2023-05-18T23:46:58.880Z,8.40
2023-05-18T23:49:47.629Z,8.40
2023-05-18T23:52:35.399Z,8.40
2023-05-18T23:55:24.043Z,8.60
2023-05-18T23:58:11.863Z,8.60
